Curtice, Ohio
Current Conditions -  °F | °C
As of 2:53 PM on Thursday 30 Oct 2014 (Local Time) from KTDZ Reporting Station
Clear Clear  
Wind Chill: 50°   Ceiling: Unl
Heat Index: 50°   Visibility: 10mi
Dew Point: 33°   Wind: 6mph
Humidity: 52%   Direction: 250°WSW
Pressure: 30.1"   Gusts: NA
Location:  41.62°N, 83.37°W
Report Text: KTDZ 301853Z AUTO 25005KT 10SM CLR 10/01 A3010 RMK AO2 SLP194 T01000006 TSNO
Loading
Personal Weather Stations






























Interactive Weather Map
Tropical Storm Tracking
New forecast layout! Learn more

10-Day Weather Forecast

Advertisements
Track Severe Weather on mobile